sensor_id;sensor_type;location;lat;lon;timestamp;pressure;altitude;pressure_sealevel;temperature;humidity
55733;BME280;41637;52.364;9.910;2023-03-03T00:01:14;101674.31;;;0.42;96.55
55733;BME280;41637;52.364;9.910;2023-03-03T00:03:43;101677.73;;;0.43;96.40
55733;BME280;41637;52.364;9.910;2023-03-03T00:06:13;101679.08;;;0.41;96.16
55733;BME280;41637;52.364;9.910;2023-03-03T00:08:41;101682.66;;;0.32;95.83
55733;BME280;41637;52.364;9.910;2023-03-03T00:11:11;101677.87;;;0.27;95.83
55733;BME280;41637;52.364;9.910;2023-03-03T00:13:47;101674.89;;;0.27;96.24
55733;BME280;41637;52.364;9.910;2023-03-03T00:16:36;101667.36;;;0.29;96.30
55733;BME280;41637;52.364;9.910;2023-03-03T00:19:16;101670.63;;;0.26;96.17
55733;BME280;41637;52.364;9.910;2023-03-03T00:21:48;101671.67;;;0.23;96.13
55733;BME280;41637;52.364;9.910;2023-03-03T00:26:52;101694.40;;;0.30;96.72
55733;BME280;41637;52.364;9.910;2023-03-03T00:29:58;101706.19;;;0.31;96.53
55733;BME280;41637;52.364;9.910;2023-03-03T00:32:45;101709.47;;;0.25;96.53
55733;BME280;41637;52.364;9.910;2023-03-03T00:35:36;101710.33;;;0.16;96.32
55733;BME280;41637;52.364;9.910;2023-03-03T00:38:16;101707.52;;;-0.00;96.36
55733;BME280;41637;52.364;9.910;2023-03-03T00:40:45;101706.58;;;-0.09;96.66
55733;BME280;41637;52.364;9.910;2023-03-03T00:43:24;101705.86;;;-0.15;96.93
55733;BME280;41637;52.364;9.910;2023-03-03T00:45:55;101707.16;;;-0.23;97.32
55733;BME280;41637;52.364;9.910;2023-03-03T00:48:40;101712.11;;;-0.28;97.19
55733;BME280;41637;52.364;9.910;2023-03-03T00:51:19;101711.42;;;-0.28;97.26
55733;BME280;41637;52.364;9.910;2023-03-03T00:53:53;101705.91;;;-0.26;97.37
55733;BME280;41637;52.364;9.910;2023-03-03T00:56:20;101698.44;;;-0.22;97.41
55733;BME280;41637;52.364;9.910;2023-03-03T00:58:50;101696.24;;;-0.17;97.45
55733;BME280;41637;52.364;9.910;2023-03-03T01:01:30;101699.86;;;-0.16;97.09
55733;BME280;41637;52.364;9.910;2023-03-03T01:04:18;101693.95;;;-0.20;97.08
55733;BME280;41637;52.364;9.910;2023-03-03T01:06:49;101683.10;;;-0.18;97.27
55733;BME280;41637;52.364;9.910;2023-03-03T01:09:16;101676.57;;;-0.20;96.95
55733;BME280;41637;52.364;9.910;2023-03-03T01:11:46;101681.23;;;-0.19;97.06
55733;BME280;41637;52.364;9.910;2023-03-03T01:14:13;101689.09;;;-0.20;97.05
55733;BME280;41637;52.364;9.910;2023-03-03T01:16:40;101693.69;;;-0.21;96.97
55733;BME280;41637;52.364;9.910;2023-03-03T01:19:11;101701.58;;;-0.19;97.41
55733;BME280;41637;52.364;9.910;2023-03-03T01:21:40;101702.02;;;-0.18;97.54
55733;BME280;41637;52.364;9.910;2023-03-03T01:24:12;101695.54;;;-0.17;97.42
55733;BME280;41637;52.364;9.910;2023-03-03T01:26:42;101693.95;;;-0.16;97.26
55733;BME280;41637;52.364;9.910;2023-03-03T01:29:12;101692.09;;;-0.14;97.37
55733;BME280;41637;52.364;9.910;2023-03-03T01:31:40;101688.27;;;-0.11;97.59
55733;BME280;41637;52.364;9.910;2023-03-03T01:34:07;101695.34;;;-0.07;97.66
55733;BME280;41637;52.364;9.910;2023-03-03T01:36:35;101698.19;;;-0.08;97.65
55733;BME280;41637;52.364;9.910;2023-03-03T01:39:03;101689.80;;;-0.13;97.62
55733;BME280;41637;52.364;9.910;2023-03-03T01:41:31;101690.38;;;-0.18;97.39
55733;BME280;41637;52.364;9.910;2023-03-03T01:44:05;101691.95;;;-0.24;97.61
55733;BME280;41637;52.364;9.910;2023-03-03T01:47:04;101701.98;;;-0.30;97.58
55733;BME280;41637;52.364;9.910;2023-03-03T01:49:39;101705.32;;;-0.38;98.09
55733;BME280;41637;52.364;9.910;2023-03-03T01:52:16;101705.86;;;-0.42;98.13
55733;BME280;41637;52.364;9.910;2023-03-03T01:54:56;101701.36;;;-0.43;98.55
55733;BME280;41637;52.364;9.910;2023-03-03T01:57:32;101694.96;;;-0.39;98.54
55733;BME280;41637;52.364;9.910;2023-03-03T02:00:02;101702.64;;;-0.40;99.17
55733;BME280;41637;52.364;9.910;2023-03-03T02:02:34;101704.36;;;-0.43;99.06
55733;BME280;41637;52.364;9.910;2023-03-03T02:05:04;101697.80;;;-0.41;99.18
55733;BME280;41637;52.364;9.910;2023-03-03T02:07:33;101690.06;;;-0.38;99.20
55733;BME280;41637;52.364;9.910;2023-03-03T02:10:11;101684.30;;;-0.35;99.16
55733;BME280;41637;52.364;9.910;2023-03-03T02:12:51;101681.80;;;-0.33;99.20
55733;BME280;41637;52.364;9.910;2023-03-03T02:15:22;101680.55;;;-0.33;99.19
55733;BME280;41637;52.364;9.910;2023-03-03T02:17:54;101679.38;;;-0.30;99.05
55733;BME280;41637;52.364;9.910;2023-03-03T02:26:22;101674.95;;;-0.12;99.23
55733;BME280;41637;52.364;9.910;2023-03-03T02:28:49;101670.06;;;-0.09;99.24
55733;BME280;41637;52.364;9.910;2023-03-03T02:31:21;101669.23;;;-0.03;99.16
55733;BME280;41637;52.364;9.910;2023-03-03T02:33:53;101667.09;;;0.02;99.06
55733;BME280;41637;52.364;9.910;2023-03-03T02:36:35;101664.34;;;0.04;98.92
55733;BME280;41637;52.364;9.910;2023-03-03T02:39:13;101670.98;;;0.04;98.79
55733;BME280;41637;52.364;9.910;2023-03-03T02:44:30;101660.70;;;0.10;98.89
55733;BME280;41637;52.364;9.910;2023-03-03T02:46:58;101660.46;;;0.14;98.83
55733;BME280;41637;52.364;9.910;2023-03-03T02:49:30;101653.13;;;0.18;98.86
55733;BME280;41637;52.364;9.910;2023-03-03T02:52:01;101652.92;;;0.22;98.81
55733;BME280;41637;52.364;9.910;2023-03-03T02:54:32;101653.11;;;0.28;98.84
55733;BME280;41637;52.364;9.910;2023-03-03T02:56:59;101649.64;;;0.31;98.54
55733;BME280;41637;52.364;9.910;2023-03-03T02:59:27;101650.63;;;0.35;98.66
55733;BME280;41637;52.364;9.910;2023-03-03T03:01:54;101645.18;;;0.36;98.27
55733;BME280;41637;52.364;9.910;2023-03-03T03:04:23;101642.86;;;0.34;97.95
55733;BME280;41637;52.364;9.910;2023-03-03T03:06:51;101650.69;;;0.31;97.82
55733;BME280;41637;52.364;9.910;2023-03-03T03:09:23;101648.38;;;0.29;97.88
55733;BME280;41637;52.364;9.910;2023-03-03T03:11:51;101654.48;;;0.29;97.77
55733;BME280;41637;52.364;9.910;2023-03-03T03:14:19;101650.54;;;0.28;97.72
55733;BME280;41637;52.364;9.910;2023-03-03T03:16:47;101653.80;;;0.28;97.84
55733;BME280;41637;52.364;9.910;2023-03-03T03:19:17;101657.59;;;0.32;98.06
55733;BME280;41637;52.364;9.910;2023-03-03T03:21:44;101661.41;;;0.35;98.07
55733;BME280;41637;52.364;9.910;2023-03-03T03:24:11;101663.70;;;0.35;97.82
55733;BME280;41637;52.364;9.910;2023-03-03T03:26:38;101669.77;;;0.32;97.71
55733;BME280;41637;52.364;9.910;2023-03-03T03:29:08;101665.24;;;0.29;97.61
55733;BME280;41637;52.364;9.910;2023-03-03T03:31:36;101665.77;;;0.29;97.78
55733;BME280;41637;52.364;9.910;2023-03-03T03:34:04;101663.77;;;0.30;97.81
55733;BME280;41637;52.364;9.910;2023-03-03T03:36:40;101662.15;;;0.31;97.85
55733;BME280;41637;52.364;9.910;2023-03-03T03:39:10;101661.24;;;0.35;97.93
55733;BME280;41637;52.364;9.910;2023-03-03T03:41:37;101660.04;;;0.38;97.96
55733;BME280;41637;52.364;9.910;2023-03-03T03:44:10;101657.23;;;0.42;98.00
55733;BME280;41637;52.364;9.910;2023-03-03T03:46:37;101658.86;;;0.47;98.01
55733;BME280;41637;52.364;9.910;2023-03-03T03:49:07;101658.75;;;0.49;97.90
55733;BME280;41637;52.364;9.910;2023-03-03T03:51:34;101659.83;;;0.49;97.59
55733;BME280;41637;52.364;9.910;2023-03-03T03:54:04;101659.55;;;0.47;97.36
55733;BME280;41637;52.364;9.910;2023-03-03T03:56:34;101664.42;;;0.44;97.25
55733;BME280;41637;52.364;9.910;2023-03-03T03:59:01;101669.58;;;0.42;97.33
55733;BME280;41637;52.364;9.910;2023-03-03T04:01:31;101670.64;;;0.38;97.43
55733;BME280;41637;52.364;9.910;2023-03-03T04:04:12;101672.45;;;0.34;97.49
55733;BME280;41637;52.364;9.910;2023-03-03T04:06:42;101675.62;;;0.30;97.65
55733;BME280;41637;52.364;9.910;2023-03-03T04:09:18;101677.67;;;0.31;97.77
55733;BME280;41637;52.364;9.910;2023-03-03T04:11:45;101678.77;;;0.33;98.04
55733;BME280;41637;52.364;9.910;2023-03-03T04:14:22;101676.29;;;0.34;97.99
55733;BME280;41637;52.364;9.910;2023-03-03T04:16:49;101680.58;;;0.35;97.96
55733;BME280;41637;52.364;9.910;2023-03-03T04:19:28;101679.18;;;0.32;97.94
55733;BME280;41637;52.364;9.910;2023-03-03T04:21:58;101677.23;;;0.29;98.07
55733;BME280;41637;52.364;9.910;2023-03-03T04:24:31;101678.38;;;0.31;98.11
55733;BME280;41637;52.364;9.910;2023-03-03T04:27:01;101681.28;;;0.32;98.13
55733;BME280;41637;52.364;9.910;2023-03-03T04:29:34;101684.59;;;0.29;98.35
55733;BME280;41637;52.364;9.910;2023-03-03T04:32:02;101683.73;;;0.28;98.24
55733;BME280;41637;52.364;9.910;2023-03-03T04:34:29;101683.89;;;0.28;98.46
55733;BME280;41637;52.364;9.910;2023-03-03T04:37:02;101684.24;;;0.31;98.58
55733;BME280;41637;52.364;9.910;2023-03-03T04:39:35;101683.64;;;0.33;98.59
55733;BME280;41637;52.364;9.910;2023-03-03T04:42:02;101684.16;;;0.36;98.64
55733;BME280;41637;52.364;9.910;2023-03-03T04:44:40;101684.03;;;0.39;98.50
55733;BME280;41637;52.364;9.910;2023-03-03T04:47:09;101683.02;;;0.38;98.51
55733;BME280;41637;52.364;9.910;2023-03-03T04:49:36;101682.40;;;0.40;98.36
55733;BME280;41637;52.364;9.910;2023-03-03T04:52:04;101684.99;;;0.40;98.29
55733;BME280;41637;52.364;9.910;2023-03-03T04:54:33;101690.41;;;0.40;98.13
55733;BME280;41637;52.364;9.910;2023-03-03T04:57:00;101696.96;;;0.41;98.18
55733;BME280;41637;52.364;9.910;2023-03-03T04:59:28;101697.64;;;0.45;98.40
55733;BME280;41637;52.364;9.910;2023-03-03T05:01:55;101700.20;;;0.49;98.39
55733;BME280;41637;52.364;9.910;2023-03-03T05:04:24;101702.01;;;0.54;98.28
55733;BME280;41637;52.364;9.910;2023-03-03T05:06:51;101700.09;;;0.54;98.15
55733;BME280;41637;52.364;9.910;2023-03-03T05:09:19;101696.64;;;0.53;97.92
55733;BME280;41637;52.364;9.910;2023-03-03T05:11:46;101693.83;;;0.50;97.68
55733;BME280;41637;52.364;9.910;2023-03-03T05:14:13;101685.27;;;0.51;97.84
55733;BME280;41637;52.364;9.910;2023-03-03T05:16:49;101683.36;;;0.54;97.88
55733;BME280;41637;52.364;9.910;2023-03-03T05:19:17;101681.55;;;0.58;97.85
55733;BME280;41637;52.364;9.910;2023-03-03T05:21:44;101679.30;;;0.61;97.80
55733;BME280;41637;52.364;9.910;2023-03-03T05:24:13;101677.33;;;0.62;97.65
55733;BME280;41637;52.364;9.910;2023-03-03T05:26:43;101675.11;;;0.61;97.50
55733;BME280;41637;52.364;9.910;2023-03-03T05:29:11;101673.83;;;0.59;97.22
55733;BME280;41637;52.364;9.910;2023-03-03T05:31:45;101666.56;;;0.62;97.48
55733;BME280;41637;52.364;9.910;2023-03-03T05:34:15;101668.29;;;0.65;97.30
55733;BME280;41637;52.364;9.910;2023-03-03T05:36:43;101664.52;;;0.64;97.17
55733;BME280;41637;52.364;9.910;2023-03-03T05:39:10;101659.25;;;0.65;97.02
55733;BME280;41637;52.364;9.910;2023-03-03T05:41:37;101657.98;;;0.66;96.88
55733;BME280;41637;52.364;9.910;2023-03-03T05:44:04;101658.83;;;0.66;96.68
55733;BME280;41637;52.364;9.910;2023-03-03T05:46:31;101661.83;;;0.69;96.82
55733;BME280;41637;52.364;9.910;2023-03-03T05:48:59;101659.30;;;0.70;96.57
55733;BME280;41637;52.364;9.910;2023-03-03T05:51:26;101661.23;;;0.73;96.53
55733;BME280;41637;52.364;9.910;2023-03-03T05:53:54;101661.90;;;0.76;96.35
55733;BME280;41637;52.364;9.910;2023-03-03T05:56:22;101667.51;;;0.76;96.22
55733;BME280;41637;52.364;9.910;2023-03-03T05:58:50;101669.38;;;0.73;95.87
55733;BME280;41637;52.364;9.910;2023-03-03T06:01:20;101669.89;;;0.73;96.04
55733;BME280;41637;52.364;9.910;2023-03-03T06:03:50;101673.95;;;0.73;95.82
55733;BME280;41637;52.364;9.910;2023-03-03T06:06:20;101679.69;;;0.73;95.79
55733;BME280;41637;52.364;9.910;2023-03-03T06:08:47;101686.48;;;0.76;95.97
55733;BME280;41637;52.364;9.910;2023-03-03T06:11:14;101690.96;;;0.79;96.16
55733;BME280;41637;52.364;9.910;2023-03-03T06:13:42;101693.09;;;0.85;96.10
55733;BME280;41637;52.364;9.910;2023-03-03T06:16:09;101700.27;;;0.91;96.07
55733;BME280;41637;52.364;9.910;2023-03-03T06:18:36;101705.52;;;0.93;95.68
55733;BME280;41637;52.364;9.910;2023-03-03T06:21:04;101711.59;;;0.97;95.79
55733;BME280;41637;52.364;9.910;2023-03-03T06:23:33;101714.01;;;1.00;95.78
55733;BME280;41637;52.364;9.910;2023-03-03T06:26:03;101718.23;;;1.03;95.55
55733;BME280;41637;52.364;9.910;2023-03-03T06:28:31;101724.14;;;1.06;95.40
55733;BME280;41637;52.364;9.910;2023-03-03T06:31:16;101726.96;;;1.05;95.06
55733;BME280;41637;52.364;9.910;2023-03-03T06:33:43;101732.90;;;1.05;94.96
55733;BME280;41637;52.364;9.910;2023-03-03T06:36:19;101736.02;;;1.05;95.13
55733;BME280;41637;52.364;9.910;2023-03-03T06:38:47;101738.75;;;1.06;95.24
55733;BME280;41637;52.364;9.910;2023-03-03T06:41:14;101733.88;;;1.03;95.07
55733;BME280;41637;52.364;9.910;2023-03-03T06:43:41;101729.45;;;0.98;94.81
55733;BME280;41637;52.364;9.910;2023-03-03T06:46:08;101731.05;;;0.94;94.87
55733;BME280;41637;52.364;9.910;2023-03-03T06:48:35;101733.00;;;0.91;95.03
55733;BME280;41637;52.364;9.910;2023-03-03T06:51:15;101733.96;;;0.86;95.20
55733;BME280;41637;52.364;9.910;2023-03-03T06:53:47;101730.23;;;0.81;94.96
55733;BME280;41637;52.364;9.910;2023-03-03T06:56:14;101731.38;;;0.79;95.07
55733;BME280;41637;52.364;9.910;2023-03-03T06:58:41;101733.98;;;0.80;95.22
55733;BME280;41637;52.364;9.910;2023-03-03T07:01:15;101739.60;;;0.79;95.32
55733;BME280;41637;52.364;9.910;2023-03-03T07:03:43;101736.17;;;0.81;95.38
55733;BME280;41637;52.364;9.910;2023-03-03T07:06:20;101738.63;;;0.84;95.47
55733;BME280;41637;52.364;9.910;2023-03-03T07:08:49;101737.42;;;0.87;95.44
55733;BME280;41637;52.364;9.910;2023-03-03T07:11:21;101738.70;;;0.86;94.98
55733;BME280;41637;52.364;9.910;2023-03-03T07:13:50;101740.78;;;0.83;94.97
55733;BME280;41637;52.364;9.910;2023-03-03T07:16:19;101743.92;;;0.82;94.98
55733;BME280;41637;52.364;9.910;2023-03-03T07:19:02;101745.29;;;0.83;94.96
55733;BME280;41637;52.364;9.910;2023-03-03T07:21:33;101748.52;;;0.88;95.18
55733;BME280;41637;52.364;9.910;2023-03-03T07:26:41;101753.63;;;0.96;94.52
55733;BME280;41637;52.364;9.910;2023-03-03T07:29:27;101755.36;;;0.96;94.46
55733;BME280;41637;52.364;9.910;2023-03-03T07:31:57;101758.26;;;1.00;94.53
55733;BME280;41637;52.364;9.910;2023-03-03T07:34:37;101759.20;;;1.08;94.79
55733;BME280;41637;52.364;9.910;2023-03-03T07:39:53;101760.09;;;1.23;94.31
55733;BME280;41637;52.364;9.910;2023-03-03T07:42:23;101760.21;;;1.27;93.84
55733;BME280;41637;52.364;9.910;2023-03-03T07:44:57;101760.19;;;1.34;93.71
55733;BME280;41637;52.364;9.910;2023-03-03T07:47:28;101765.11;;;1.39;93.75
55733;BME280;41637;52.364;9.910;2023-03-03T07:49:59;101766.36;;;1.38;92.99
55733;BME280;41637;52.364;9.910;2023-03-03T07:52:41;101771.11;;;1.34;92.88
55733;BME280;41637;52.364;9.910;2023-03-03T07:58:13;101778.96;;;1.29;92.65
55733;BME280;41637;52.364;9.910;2023-03-03T08:03:15;101781.08;;;1.25;92.53
55733;BME280;41637;52.364;9.910;2023-03-03T08:05:46;101783.58;;;1.27;92.82
55733;BME280;41637;52.364;9.910;2023-03-03T08:08:37;101779.52;;;1.34;92.99
55733;BME280;41637;52.364;9.910;2023-03-03T08:11:04;101784.77;;;1.43;92.70
55733;BME280;41637;52.364;9.910;2023-03-03T08:18:46;101785.63;;;1.51;91.42
55733;BME280;41637;52.364;9.910;2023-03-03T08:23:46;101787.62;;;1.50;90.84
55733;BME280;41637;52.364;9.910;2023-03-03T08:26:14;101791.66;;;1.50;90.33
55733;BME280;41637;52.364;9.910;2023-03-03T08:28:45;101790.80;;;1.52;90.47
55733;BME280;41637;52.364;9.910;2023-03-03T08:31:15;101787.95;;;1.57;90.70
55733;BME280;41637;52.364;9.910;2023-03-03T08:34:00;101789.27;;;1.64;90.40
55733;BME280;41637;52.364;9.910;2023-03-03T08:36:27;101793.29;;;1.70;90.60
55733;BME280;41637;52.364;9.910;2023-03-03T08:38:54;101795.60;;;1.75;90.11
55733;BME280;41637;52.364;9.910;2023-03-03T08:41:22;101799.29;;;1.77;89.64
55733;BME280;41637;52.364;9.910;2023-03-03T08:43:49;101800.77;;;1.79;89.40
55733;BME280;41637;52.364;9.910;2023-03-03T08:46:16;101800.36;;;1.80;89.35
55733;BME280;41637;52.364;9.910;2023-03-03T08:48:46;101802.05;;;1.84;89.75
55733;BME280;41637;52.364;9.910;2023-03-03T08:51:13;101799.23;;;1.88;89.43
55733;BME280;41637;52.364;9.910;2023-03-03T08:53:40;101795.73;;;1.91;89.17
55733;BME280;41637;52.364;9.910;2023-03-03T08:56:07;101797.17;;;1.92;88.90
55733;BME280;41637;52.364;9.910;2023-03-03T08:58:34;101801.64;;;1.94;88.76
55733;BME280;41637;52.364;9.910;2023-03-03T09:01:03;101802.15;;;1.97;88.75
55733;BME280;41637;52.364;9.910;2023-03-03T09:03:29;101803.42;;;2.01;88.89
55733;BME280;41637;52.364;9.910;2023-03-03T09:05:57;101802.95;;;2.07;88.32
55733;BME280;41637;52.364;9.910;2023-03-03T09:08:24;101798.91;;;2.04;87.60
55733;BME280;41637;52.364;9.910;2023-03-03T09:10:51;101803.01;;;2.12;88.11
55733;BME280;41637;52.364;9.910;2023-03-03T09:13:19;101803.14;;;2.21;88.17
55733;BME280;41637;52.364;9.910;2023-03-03T09:15:46;101806.54;;;2.31;87.79
55733;BME280;41637;52.364;9.910;2023-03-03T09:18:29;101798.49;;;2.40;87.88
55733;BME280;41637;52.364;9.910;2023-03-03T09:20:57;101796.89;;;2.49;86.83
55733;BME280;41637;52.364;9.910;2023-03-03T09:23:48;101793.29;;;2.51;86.20
55733;BME280;41637;52.364;9.910;2023-03-03T09:26:29;101793.94;;;2.52;85.90
55733;BME280;41637;52.364;9.910;2023-03-03T09:29:15;101792.47;;;2.58;86.58
55733;BME280;41637;52.364;9.910;2023-03-03T09:31:48;101792.52;;;2.66;85.88
55733;BME280;41637;52.364;9.910;2023-03-03T09:37:17;101789.66;;;2.86;85.90
55733;BME280;41637;52.364;9.910;2023-03-03T09:39:54;101788.44;;;2.92;85.01
55733;BME280;41637;52.364;9.910;2023-03-03T09:43:08;101786.91;;;2.94;84.81
55733;BME280;41637;52.364;9.910;2023-03-03T09:56:33;101801.90;;;2.78;83.46
55733;BME280;41637;52.364;9.910;2023-03-03T09:59:30;101804.81;;;2.81;83.99
55733;BME280;41637;52.364;9.910;2023-03-03T10:05:08;101807.71;;;2.77;82.89
55733;BME280;41637;52.364;9.910;2023-03-03T10:08:02;101810.83;;;2.77;83.53
55733;BME280;41637;52.364;9.910;2023-03-03T10:10:46;101806.76;;;2.84;83.05
55733;BME280;41637;52.364;9.910;2023-03-03T10:13:47;101808.25;;;2.94;83.39
55733;BME280;41637;52.364;9.910;2023-03-03T10:16:33;101806.83;;;2.99;82.54
55733;BME280;41637;52.364;9.910;2023-03-03T10:19:14;101804.33;;;3.08;82.78
55733;BME280;41637;52.364;9.910;2023-03-03T10:24:57;101806.48;;;3.29;82.00
55733;BME280;41637;52.364;9.910;2023-03-03T10:33:57;101815.84;;;3.41;80.29
55733;BME280;41637;52.364;9.910;2023-03-03T10:45:04;101804.88;;;3.77;80.10
55733;BME280;41637;52.364;9.910;2023-03-03T10:58:38;101812.79;;;4.18;78.68
55733;BME280;41637;52.364;9.910;2023-03-03T11:01:13;101810.39;;;4.22;77.95
55733;BME280;41637;52.364;9.910;2023-03-03T11:03:47;101808.99;;;4.25;77.83
55733;BME280;41637;52.364;9.910;2023-03-03T11:06:28;101813.27;;;4.19;77.64
55733;BME280;41637;52.364;9.910;2023-03-03T11:18:10;101806.52;;;4.30;77.51
55733;BME280;41637;52.364;9.910;2023-03-03T11:24:07;101802.95;;;4.51;76.63
55733;BME280;41637;52.364;9.910;2023-03-03T11:32:39;101797.05;;;4.84;74.47
55733;BME280;41637;52.364;9.910;2023-03-03T11:35:39;101791.90;;;4.93;74.12
55733;BME280;41637;52.364;9.910;2023-03-03T11:40:50;101783.05;;;5.23;73.48
55733;BME280;41637;52.364;9.910;2023-03-03T11:43:28;101782.39;;;5.53;72.83
55733;BME280;41637;52.364;9.910;2023-03-03T11:46:15;101785.98;;;5.73;71.80
55733;BME280;41637;52.364;9.910;2023-03-03T11:48:57;101783.67;;;5.87;70.63
55733;BME280;41637;52.364;9.910;2023-03-03T11:51:57;101783.27;;;5.92;70.12
55733;BME280;41637;52.364;9.910;2023-03-03T11:55:03;101778.48;;;6.02;69.83
55733;BME280;41637;52.364;9.910;2023-03-03T11:58:11;101771.55;;;6.08;69.60
55733;BME280;41637;52.364;9.910;2023-03-03T12:03:19;101776.79;;;6.23;67.93
55733;BME280;41637;52.364;9.910;2023-03-03T12:11:47;101752.46;;;6.98;65.46
55733;BME280;41637;52.364;9.910;2023-03-03T12:17:38;101748.81;;;7.55;63.87
55733;BME280;41637;52.364;9.910;2023-03-03T12:20:30;101743.33;;;7.99;62.60
55733;BME280;41637;52.364;9.910;2023-03-03T12:23:18;101734.42;;;8.39;61.61
55733;BME280;41637;52.364;9.910;2023-03-03T12:28:51;101735.63;;;8.35;60.32
55733;BME280;41637;52.364;9.910;2023-03-03T12:34:44;101725.11;;;9.13;59.10
55733;BME280;41637;52.364;9.910;2023-03-03T12:40:13;101720.67;;;11.09;53.32
55733;BME280;41637;52.364;9.910;2023-03-03T12:50:51;101716.20;;;12.71;46.54
55733;BME280;41637;52.364;9.910;2023-03-03T12:53:44;101712.69;;;12.99;45.76
55733;BME280;41637;52.364;9.910;2023-03-03T12:56:32;101705.54;;;13.57;44.72
55733;BME280;41637;52.364;9.910;2023-03-03T12:59:06;101708.87;;;13.52;43.94
55733;BME280;41637;52.364;9.910;2023-03-03T13:01:55;101708.48;;;12.70;44.78
55733;BME280;41637;52.364;9.910;2023-03-03T13:07:12;101707.59;;;13.04;44.60
55733;BME280;41637;52.364;9.910;2023-03-03T13:15:11;101695.34;;;15.47;40.80
55733;BME280;41637;52.364;9.910;2023-03-03T13:17:52;101695.48;;;15.07;40.06
55733;BME280;41637;52.364;9.910;2023-03-03T13:20:40;101702.69;;;13.93;41.51
55733;BME280;41637;52.364;9.910;2023-03-03T13:23:37;101697.27;;;12.79;43.65
55733;BME280;41637;52.364;9.910;2023-03-03T13:26:23;101694.04;;;11.86;45.95
55733;BME280;41637;52.364;9.910;2023-03-03T13:31:23;101697.91;;;11.62;47.29
55733;BME280;41637;52.364;9.910;2023-03-03T13:33:56;101698.54;;;11.26;47.43
55733;BME280;41637;52.364;9.910;2023-03-03T13:36:30;101696.16;;;10.56;49.07
55733;BME280;41637;52.364;9.910;2023-03-03T13:39:11;101697.10;;;10.04;51.04
55733;BME280;41637;52.364;9.910;2023-03-03T13:41:43;101693.19;;;9.78;52.40
55733;BME280;41637;52.364;9.910;2023-03-03T13:44:24;101688.66;;;9.75;52.42
55733;BME280;41637;52.364;9.910;2023-03-03T13:50:26;101673.70;;;12.28;48.48
55733;BME280;41637;52.364;9.910;2023-03-03T13:53:29;101674.14;;;13.50;44.08
55733;BME280;41637;52.364;9.910;2023-03-03T13:58:51;101673.93;;;13.82;42.46
55733;BME280;41637;52.364;9.910;2023-03-03T14:02:00;101661.70;;;13.12;43.87
55733;BME280;41637;52.364;9.910;2023-03-03T14:04:39;101658.18;;;11.95;46.29
55733;BME280;41637;52.364;9.910;2023-03-03T14:09:55;101655.95;;;10.49;50.07
55733;BME280;41637;52.364;9.910;2023-03-03T14:12:35;101660.00;;;9.94;51.77
55733;BME280;41637;52.364;9.910;2023-03-03T14:15:20;101653.92;;;9.82;53.04
55733;BME280;41637;52.364;9.910;2023-03-03T14:20:57;101650.22;;;9.62;53.84
55733;BME280;41637;52.364;9.910;2023-03-03T14:26:15;101648.40;;;9.33;55.61
55733;BME280;41637;52.364;9.910;2023-03-03T14:28:45;101651.23;;;8.95;55.73
55733;BME280;41637;52.364;9.910;2023-03-03T14:31:20;101645.00;;;8.45;56.71
55733;BME280;41637;52.364;9.910;2023-03-03T14:34:02;101649.49;;;8.06;58.24
55733;BME280;41637;52.364;9.910;2023-03-03T14:36:38;101642.05;;;7.68;59.56
55733;BME280;41637;52.364;9.910;2023-03-03T14:39:33;101645.84;;;7.30;61.66
55733;BME280;41637;52.364;9.910;2023-03-03T14:42:01;101644.53;;;6.87;63.02
55733;BME280;41637;52.364;9.910;2023-03-03T14:44:52;101639.51;;;6.63;64.43
55733;BME280;41637;52.364;9.910;2023-03-03T14:47:24;101635.76;;;6.29;65.41
55733;BME280;41637;52.364;9.910;2023-03-03T14:49:54;101635.85;;;6.21;66.20
55733;BME280;41637;52.364;9.910;2023-03-03T14:52:29;101634.04;;;6.20;66.29
55733;BME280;41637;52.364;9.910;2023-03-03T14:55:00;101635.67;;;6.03;67.00
55733;BME280;41637;52.364;9.910;2023-03-03T14:57:40;101632.52;;;5.89;67.53
55733;BME280;41637;52.364;9.910;2023-03-03T15:02:43;101635.26;;;5.97;68.24
55733;BME280;41637;52.364;9.910;2023-03-03T15:05:30;101627.79;;;6.16;67.97
55733;BME280;41637;52.364;9.910;2023-03-03T15:10:41;101624.91;;;7.93;63.72
55733;BME280;41637;52.364;9.910;2023-03-03T15:13:37;101624.27;;;8.10;60.86
55733;BME280;41637;52.364;9.910;2023-03-03T15:16:21;101619.43;;;8.45;59.66
55733;BME280;41637;52.364;9.910;2023-03-03T15:21:30;101616.24;;;7.71;61.24
55733;BME280;41637;52.364;9.910;2023-03-03T15:24:14;101612.98;;;7.40;62.64
55733;BME280;41637;52.364;9.910;2023-03-03T15:26:47;101615.67;;;7.31;63.00
55733;BME280;41637;52.364;9.910;2023-03-03T15:37:02;101606.09;;;8.11;59.78
55733;BME280;41637;52.364;9.910;2023-03-03T15:45:34;101596.59;;;8.29;58.39
55733;BME280;41637;52.364;9.910;2023-03-03T15:48:22;101592.79;;;8.16;59.89
55733;BME280;41637;52.364;9.910;2023-03-03T15:56:35;101589.92;;;8.05;59.95
55733;BME280;41637;52.364;9.910;2023-03-03T16:04:31;101584.42;;;8.83;58.14
55733;BME280;41637;52.364;9.910;2023-03-03T16:07:23;101586.82;;;8.99;57.26
55733;BME280;41637;52.364;9.910;2023-03-03T16:10:23;101586.81;;;9.06;56.54
55733;BME280;41637;52.364;9.910;2023-03-03T16:18:47;101580.85;;;8.09;58.07
55733;BME280;41637;52.364;9.910;2023-03-03T16:23:57;101581.56;;;6.79;62.02
55733;BME280;41637;52.364;9.910;2023-03-03T16:26:53;101583.30;;;6.45;63.59
55733;BME280;41637;52.364;9.910;2023-03-03T16:29:41;101584.14;;;6.08;65.29
55733;BME280;41637;52.364;9.910;2023-03-03T16:32:20;101581.91;;;5.79;66.07
55733;BME280;41637;52.364;9.910;2023-03-03T16:35:15;101581.45;;;5.40;67.24
55733;BME280;41637;52.364;9.910;2023-03-03T16:38:03;101581.88;;;4.95;69.49
55733;BME280;41637;52.364;9.910;2023-03-03T16:40:53;101574.95;;;4.52;71.59
55733;BME280;41637;52.364;9.910;2023-03-03T16:46:21;101572.89;;;4.25;73.28
55733;BME280;41637;52.364;9.910;2023-03-03T16:49:19;101574.39;;;4.10;74.09
55733;BME280;41637;52.364;9.910;2023-03-03T16:54:31;101570.10;;;3.74;75.21